TimeCST,TemperatureF,Dew PointF,Humidity,Sea Level PressureIn,VisibilityMPH,Wind Direction,Wind SpeedMPH,Gust SpeedMPH,PrecipitationIn,Events,Conditions,WindDirDegrees,DateUTC
12:53 AM,54.0,44.1,69,29.92,10.0,NW,6.9,-,N/A,,Clear,320,2013-02-27 06:53:00
1:53 AM,53.1,43.0,69,29.94,10.0,NNW,5.8,-,N/A,,Clear,330,2013-02-27 07:53:00
2:53 AM,51.1,42.1,71,29.93,10.0,Calm,Calm,-,N/A,,Clear,0,2013-02-27 08:53:00
3:53 AM,50.0,43.0,77,29.94,10.0,Calm,Calm,-,N/A,,Clear,0,2013-02-27 09:53:00
4:53 AM,48.9,43.0,80,29.95,10.0,NW,3.5,-,N/A,,Clear,310,2013-02-27 10:53:00
5:53 AM,48.0,42.1,80,29.95,10.0,Calm,Calm,-,N/A,,Clear,0,2013-02-27 11:53:00
6:53 AM,51.1,41.0,68,29.98,10.0,North,5.8,-,N/A,,Clear,350,2013-02-27 12:53:00
7:53 AM,52.0,43.0,71,29.99,10.0,Calm,Calm,-,N/A,,Clear,0,2013-02-27 13:53:00
8:53 AM,53.1,39.0,59,30.01,10.0,Calm,Calm,-,N/A,,Clear,0,2013-02-27 14:53:00
9:53 AM,55.9,39.0,53,30.02,10.0,South,4.6,-,N/A,,Clear,190,2013-02-27 15:53:00
10:53 AM,57.9,39.0,49,30.03,10.0,Calm,Calm,-,N/A,,Clear,0,2013-02-27 16:53:00
11:53 AM,57.0,39.0,51,30.02,10.0,Variable,6.9,-,N/A,,Clear,0,2013-02-27 17:53:00
12:53 PM,60.1,39.9,47,30.00,10.0,WSW,9.2,-,N/A,,Clear,240,2013-02-27 18:53:00
1:53 PM,60.1,39.0,46,29.98,10.0,WSW,9.2,-,N/A,,Clear,250,2013-02-27 19:53:00
2:53 PM,61.0,37.9,42,29.97,10.0,WSW,6.9,16.1,N/A,,Clear,240,2013-02-27 20:53:00
3:53 PM,61.0,39.9,46,29.96,10.0,Variable,6.9,16.1,N/A,,Clear,0,2013-02-27 21:53:00
4:53 PM,60.1,39.9,47,29.96,10.0,WSW,9.2,-,N/A,,Clear,240,2013-02-27 22:53:00
5:53 PM,59.0,41.0,51,29.97,10.0,Variable,4.6,-,N/A,,Clear,0,2013-02-27 23:53:00
6:53 PM,59.0,44.1,58,29.97,10.0,Variable,6.9,-,N/A,,Clear,0,2013-02-28 00:53:00
7:53 PM,59.0,46.0,62,29.97,10.0,Variable,4.6,-,N/A,,Clear,0,2013-02-28 01:53:00
8:53 PM,59.0,46.9,64,29.98,10.0,West,5.8,-,N/A,,Clear,260,2013-02-28 02:53:00
9:53 PM,60.1,46.0,60,29.98,10.0,WSW,5.8,-,N/A,,Clear,250,2013-02-28 03:53:00
10:53 PM,59.0,48.0,67,29.98,10.0,Variable,3.5,-,N/A,,Clear,0,2013-02-28 04:53:00
11:53 PM,59.0,48.0,67,29.97,10.0,Calm,Calm,-,N/A,,Clear,0,2013-02-28 05:53:00